Terminal Aerodrome Forecast
Issued by NWS Quad Cities IA IL

Home | Current Version | Previous Version | Text Only | Print | Product List | Glossary On
Versions: 1 2 3 4 5 6 7 8 9 10 11 12 13 14 15 16 17 18 19 20 21 22 23 24 25
000
FTUS43 KDVN 262341
TAFMLI
TAF
KMLI 262341Z 2700/2724 26015G21KT P6SM VCSH BKN040 BKN100
     FM270300 23008KT P6SM SCT030 BKN100
     FM271000 25008KT 5SM BR BKN025
     FM271600 29008KT P6SM SCT030=

USA.gov is the U.S. government's official web portal to all federal, state and local government web resources and services.